Kendall Park, New Jersey
Current Conditions -  °F | °C
As of 11:53 AM on Sunday 23 Nov 2014 (Local Time) from KSMQ Reporting Station
Clear Clear  
Wind Chill: 53°   Ceiling: Unl
Heat Index: 53°   Visibility: 10mi
Dew Point: 24°   Wind: 5mph
Humidity: 32%   Direction: 170°S
Pressure: 30.14"   Gusts: NA
Location:  40.44°N, 74.54°W
Report Text: KSMQ 231653Z AUTO 17004KT 10SM CLR 12/M04 A3014 RMK AO2 SLP207 T01171044
Loading
Personal Weather Stations






























Interactive Weather Map New forecast layout! Learn more

10-Day Weather Forecast

Advertisements
Track Severe Weather on mobile